Time;durP1;ratioP1;P1;durP2;ratioP2;P2;SDS_P1;SDS_P2;PMS_P1;PMS_P2;Temp;Humidity;BMP_temperature;BMP_pressure;BME280_temperature;BME280_humidity;BME280_pressure;Samples;Min_cycle;Max_cycle;Signal;HPM_P1;HPM_P2
2023/04/07 00:00:33;;;;;;;13.83;9.17;;;9.90;66.90;;;;;;5080862;28;20487;-63
2023/04/07 00:03:05;;;;;;;12.70;8.20;;;9.80;67.10;;;;;;5078733;28;20493;-63
2023/04/07 00:05:37;;;;;;;13.47;8.37;;;9.80;67.30;;;;;;5080321;28;20458;-63
2023/04/07 00:08:22;;;;;;;12.13;8.17;;;9.80;67.30;;;;;;5078192;28;20446;-62
2023/04/07 00:10:57;;;;;;;14.00;8.37;;;9.70;67.40;;;;;;5081321;28;20453;-62
2023/04/07 00:13:32;;;;;;;13.93;9.73;;;9.70;67.60;;;;;;5085630;28;20450;-62
2023/04/07 00:16:07;;;;;;;13.90;9.37;;;9.70;67.80;;;;;;5081396;28;20500;-62
2023/04/07 00:18:47;;;;;;;12.93;9.23;;;9.70;68.00;;;;;;5085308;28;20453;-62
2023/04/07 00:21:29;;;;;;;14.50;9.13;;;9.70;68.00;;;;;;5084414;28;20467;-62
2023/04/07 00:24:02;;;;;;;14.30;9.30;;;9.70;68.10;;;;;;5080625;28;20458;-62
2023/04/07 00:26:33;;;;;;;16.20;8.67;;;9.70;68.20;;;;;;5083955;28;20839;-62
2023/04/07 00:29:13;;;;;;;13.70;8.67;;;9.70;68.30;;;;;;5082142;28;20886;-62
2023/04/07 00:31:46;;;;;;;14.10;8.53;;;9.80;68.40;;;;;;5067665;28;21055;-62
2023/04/07 00:34:16;;;;;;;12.30;9.00;;;9.80;68.60;;;;;;5080025;28;20450;-62
2023/04/07 00:36:54;;;;;;;14.80;9.50;;;9.80;68.60;;;;;;5065897;28;21012;-62
2023/04/07 00:39:26;;;;;;;14.43;9.40;;;9.80;68.70;;;;;;5080874;28;20459;-62
2023/04/07 00:41:59;;;;;;;13.53;9.17;;;9.80;68.70;;;;;;5081832;28;21023;-62
2023/04/07 00:44:35;;;;;;;12.07;8.50;;;9.80;68.80;;;;;;5083836;28;20555;-62
2023/04/07 00:47:10;;;;;;;13.53;9.60;;;9.90;68.90;;;;;;5077520;28;20476;-62
2023/04/07 00:49:42;;;;;;;16.13;9.20;;;9.90;69.00;;;;;;5084542;28;20453;-62
2023/04/07 00:52:14;;;;;;;12.40;8.77;;;9.90;69.00;;;;;;5080271;28;20457;-62
2023/04/07 00:54:50;;;;;;;12.57;7.93;;;9.80;69.10;;;;;;5081950;28;20469;-62
2023/04/07 00:57:21;;;;;;;12.47;8.60;;;9.80;69.20;;;;;;5080560;28;20761;-63
2023/04/07 00:59:55;;;;;;;10.17;7.50;;;9.80;69.30;;;;;;5066795;28;21239;-62
2023/04/07 01:02:37;;;;;;;12.87;9.13;;;9.80;69.40;;;;;;5082317;28;20817;-63
2023/04/07 01:05:23;;;;;;;12.90;8.83;;;9.80;69.50;;;;;;5082286;28;20542;-63
2023/04/07 01:08:16;;;;;;;12.73;7.57;;;9.70;69.60;;;;;;5064666;28;20462;-62
2023/04/07 01:10:55;;;;;;;15.30;7.90;;;9.70;69.60;;;;;;5062916;28;20456;-63
2023/04/07 01:13:32;;;;;;;13.43;8.80;;;9.70;69.80;;;;;;5066037;28;20486;-62
2023/04/07 01:16:24;;;;;;;15.53;8.77;;;9.70;69.90;;;;;;5081046;28;20471;-63
2023/04/07 01:19:01;;;;;;;17.23;8.80;;;9.70;70.00;;;;;;5082932;28;20468;-63
2023/04/07 01:21:38;;;;;;;27.13;8.93;;;9.70;70.10;;;;;;5071166;28;20577;-63
2023/04/07 01:24:48;;;;;;;10.20;6.73;;;9.70;70.20;;;;;;5081455;28;20488;-63
2023/04/07 01:27:30;;;;;;;12.83;8.40;;;9.70;70.30;;;;;;5082334;28;20462;-63
2023/04/07 01:30:12;;;;;;;11.70;8.17;;;9.60;70.40;;;;;;5085696;28;20556;-63
2023/04/07 01:32:44;;;;;;;12.00;8.00;;;9.60;70.60;;;;;;5064425;28;20557;-62
2023/04/07 01:35:26;;;;;;;12.57;8.53;;;9.60;70.70;;;;;;5082023;28;20688;-62
2023/04/07 01:38:00;;;;;;;11.00;7.67;;;9.60;70.70;;;;;;5082890;28;20594;-62
2023/04/07 01:40:32;;;;;;;11.43;7.00;;;9.50;70.70;;;;;;5080929;28;20461;-62
2023/04/07 01:43:05;;;;;;;14.53;9.17;;;9.50;70.70;;;;;;5061074;28;20477;-62
2023/04/07 01:45:42;;;;;;;14.53;8.63;;;9.40;70.80;;;;;;5085121;28;20461;-62
2023/04/07 01:48:18;;;;;;;12.60;8.13;;;9.40;71.00;;;;;;5080015;28;20454;-62
2023/04/07 01:50:56;;;;;;;16.13;8.77;;;9.30;71.20;;;;;;5067017;28;20551;-63
2023/04/07 01:53:28;;;;;;;12.00;8.17;;;9.30;71.30;;;;;;5084459;28;20944;-63
2023/04/07 01:55:57;;;;;;;13.00;8.77;;;9.30;71.50;;;;;;5082702;28;20458;-62
2023/04/07 01:58:32;;;;;;;15.13;9.43;;;9.20;71.70;;;;;;5082980;28;20465;-62
2023/04/07 02:01:19;;;;;;;11.23;7.53;;;9.20;71.80;;;;;;5069654;28;20492;-63
2023/04/07 02:03:59;;;;;;;14.80;9.10;;;9.20;72.00;;;;;;5077777;28;20973;-63
2023/04/07 02:06:39;;;;;;;13.63;9.13;;;9.20;72.00;;;;;;5086189;28;20460;-63
2023/04/07 02:09:18;;;;;;;12.30;8.33;;;9.20;72.10;;;;;;5071040;28;20452;-62
2023/04/07 02:11:50;;;;;;;14.10;8.03;;;9.10;72.10;;;;;;5074744;28;20478;-63
2023/04/07 02:14:24;;;;;;;21.93;10.47;;;9.10;72.10;;;;;;5071529;28;20456;-63
2023/04/07 02:17:20;;;;;;;13.97;8.97;;;9.10;72.30;;;;;;5087471;28;20489;-63
2023/04/07 02:20:01;;;;;;;14.60;8.90;;;9.00;72.50;;;;;;5064581;28;20472;-63
2023/04/07 02:22:41;;;;;;;13.67;9.40;;;9.00;72.60;;;;;;5089963;28;20523;-63
2023/04/07 02:25:29;;;;;;;13.83;8.17;;;8.90;72.90;;;;;;5091742;28;20448;-62
2023/04/07 02:28:03;;;;;;;13.40;8.50;;;8.90;73.10;;;;;;5085547;28;20469;-63
2023/04/07 02:30:41;;;;;;;18.53;8.17;;;8.90;73.00;;;;;;5085712;28;21006;-62
2023/04/07 02:33:33;;;;;;;15.57;9.30;;;8.90;73.10;;;;;;5082132;28;20452;-63
2023/04/07 02:36:07;;;;;;;15.30;9.03;;;8.90;73.20;;;;;;5088199;28;20460;-63
2023/04/07 02:38:47;;;;;;;15.00;8.63;;;8.90;73.30;;;;;;5068998;28;20461;-62
2023/04/07 02:41:27;;;;;;;17.20;9.97;;;8.90;73.30;;;;;;5086975;28;20557;-62
2023/04/07 02:44:04;;;;;;;14.30;9.60;;;8.80;73.50;;;;;;5069506;28;20564;-62
2023/04/07 02:46:45;;;;;;;13.50;8.40;;;8.80;73.50;;;;;;5079789;28;20503;-63
2023/04/07 02:49:29;;;;;;;21.07;9.53;;;8.70;73.80;;;;;;5086546;28;20472;-63
2023/04/07 02:52:02;;;;;;;14.20;9.00;;;8.70;73.80;;;;;;5081788;28;20989;-62
2023/04/07 02:54:42;;;;;;;17.13;9.57;;;8.60;73.90;;;;;;5070784;28;20471;-62
2023/04/07 02:57:14;;;;;;;15.40;9.87;;;8.60;74.00;;;;;;5073765;28;20472;-62
2023/04/07 03:03:09;;;;;;;15.70;9.50;;;8.60;74.20;;;;;;5078412;28;20484;-62
2023/04/07 03:08:49;;;;;;;13.90;9.33;;;8.60;74.50;;;;;;5088075;28;20455;-62
2023/04/07 03:11:20;;;;;;;16.43;10.03;;;8.50;74.50;;;;;;5071538;28;20562;-62
2023/04/07 03:13:51;;;;;;;15.50;9.50;;;8.50;74.80;;;;;;5064698;28;20461;-63
2023/04/07 03:16:25;;;;;;;14.13;9.47;;;8.60;74.70;;;;;;5069158;28;20456;-62
2023/04/07 03:19:09;;;;;;;15.63;9.98;;;8.50;74.80;;;;;;5080742;28;20460;-63
2023/04/07 03:21:47;;;;;;;17.70;10.03;;;8.50;75.00;;;;;;5083150;28;20294;-62
2023/04/07 03:24:21;;;;;;;27.37;15.60;;;8.50;74.90;;;;;;5086875;28;20464;-62
2023/04/07 03:26:53;;;;;;;19.20;12.57;;;8.50;75.00;;;;;;5083067;28;20539;-62
2023/04/07 03:29:57;;;;;;;17.10;9.63;;;8.60;74.90;;;;;;5083305;28;20461;-62
2023/04/07 03:32:52;;;;;;;13.80;9.07;;;8.50;75.10;;;;;;5075246;28;20482;-63
2023/04/07 03:35:53;;;;;;;15.23;9.67;;;8.50;75.20;;;;;;5082145;28;20527;-62
2023/04/07 03:38:35;;;;;;;15.37;9.50;;;8.50;75.20;;;;;;5082722;28;20819;-62
2023/04/07 03:41:08;;;;;;;15.83;10.00;;;8.60;75.20;;;;;;5072031;28;20464;-62
2023/04/07 03:43:37;;;;;;;15.77;9.88;;;8.60;75.20;;;;;;5064061;28;20481;-62
2023/04/07 03:46:44;;;;;;;16.57;10.10;;;8.60;75.20;;;;;;5080138;28;20538;-63
2023/04/07 03:49:18;;;;;;;15.47;11.10;;;8.60;75.30;;;;;;5066212;28;20476;-62
2023/04/07 03:52:15;;;;;;;17.27;12.67;;;8.50;75.30;;;;;;5076630;28;20989;-62
2023/04/07 03:55:24;;;;;;;18.43;11.10;;;8.50;75.50;;;;;;5080044;28;20846;-62
2023/04/07 03:58:03;;;;;;;18.53;11.00;;;8.50;75.50;;;;;;5063067;28;20500;-63
2023/04/07 04:00:56;;;;;;;18.17;11.03;;;8.50;75.60;;;;;;5081632;28;20475;-62
2023/04/07 04:03:26;;;;;;;16.80;11.20;;;8.50;75.80;;;;;;5063181;28;20476;-63
2023/04/07 04:06:15;;;;;;;19.57;13.07;;;8.50;75.60;;;;;;5065780;28;20465;-63
2023/04/07 04:08:55;;;;;;;20.20;12.60;;;8.40;75.80;;;;;;5082573;28;21921;-62
2023/04/07 04:11:46;;;;;;;25.90;16.20;;;8.40;75.80;;;;;;5064276;28;20463;-63
2023/04/07 04:14:20;;;;;;;22.20;14.60;;;8.40;76.00;;;;;;5064144;28;20539;-62
2023/04/07 04:17:03;;;;;;;24.83;14.17;;;8.50;76.00;;;;;;5083194;28;20467;-62
2023/04/07 04:19:42;;;;;;;24.07;15.03;;;8.50;76.00;;;;;;5063939;28;20781;-63
2023/04/07 04:22:28;;;;;;;21.67;13.80;;;8.50;76.10;;;;;;5086004;28;20459;-63
2023/04/07 04:25:05;;;;;;;21.40;13.93;;;8.50;76.10;;;;;;5065829;28;20565;-63
2023/04/07 04:27:52;;;;;;;24.17;15.50;;;8.50;76.20;;;;;;5066971;28;20467;-63
2023/04/07 04:30:36;;;;;;;19.50;12.67;;;8.50;76.20;;;;;;5083849;28;20493;-62
2023/04/07 04:33:06;;;;;;;21.87;13.60;;;8.50;76.10;;;;;;5065012;28;21064;-63
2023/04/07 04:36:13;;;;;;;20.60;12.17;;;8.50;76.20;;;;;;5083557;28;20550;-63
2023/04/07 04:38:52;;;;;;;22.47;12.70;;;8.50;76.30;;;;;;5085163;28;20454;-63
2023/04/07 04:41:23;;;;;;;19.40;12.60;;;8.50;76.40;;;;;;5080629;28;20481;-62
2023/04/07 04:43:59;;;;;;;20.37;12.67;;;8.50;76.50;;;;;;5081689;28;20983;-63
2023/04/07 04:46:40;;;;;;;19.80;12.70;;;8.60;76.40;;;;;;5063088;28;20452;-63
2023/04/07 04:49:17;;;;;;;19.53;12.20;;;8.60;76.50;;;;;;5063014;28;20457;-63
2023/04/07 04:51:58;;;;;;;20.97;13.90;;;8.60;76.40;;;;;;5084101;28;20493;-63
2023/04/07 04:54:46;;;;;;;21.93;14.43;;;8.60;76.30;;;;;;5082902;28;20529;-63
2023/04/07 04:57:28;;;;;;;22.30;13.80;;;8.60;76.30;;;;;;5065311;28;20472;-63
2023/04/07 05:00:09;;;;;;;20.70;13.93;;;8.50;76.40;;;;;;5082531;28;20525;-62
2023/04/07 05:02:52;;;;;;;23.43;14.30;;;8.40;76.80;;;;;;5081637;28;20464;-64
2023/04/07 05:05:33;;;;;;;25.90;14.57;;;8.40;76.70;;;;;;5068645;28;20483;-63
2023/04/07 05:08:08;;;;;;;21.40;14.50;;;8.30;77.00;;;;;;5080548;28;20929;-63
2023/04/07 05:10:49;;;;;;;22.53;15.20;;;8.30;77.00;;;;;;5083131;28;20575;-62
2023/04/07 05:13:29;;;;;;;27.17;16.30;;;8.30;77.10;;;;;;5082404;28;20783;-63
2023/04/07 05:16:07;;;;;;;23.87;14.83;;;8.30;77.00;;;;;;5080083;28;20480;-62
2023/04/07 05:21:37;;;;;;;23.73;16.00;;;8.40;76.90;;;;;;5081721;28;20225;-62
2023/04/07 05:24:17;;;;;;;24.45;15.93;;;8.40;77.00;;;;;;5081066;28;21173;-63
2023/04/07 05:27:04;;;;;;;24.03;15.53;;;8.40;77.00;;;;;;5061181;28;20215;-63
2023/04/07 05:29:50;;;;;;;28.10;16.50;;;8.40;77.10;;;;;;5084553;28;20776;-62
2023/04/07 05:32:34;;;;;;;22.83;15.70;;;8.30;77.10;;;;;;5079726;28;20481;-63
2023/04/07 05:35:22;;;;;;;24.58;15.70;;;8.40;77.20;;;;;;5083156;28;20503;-63
2023/04/07 05:38:09;;;;;;;24.75;15.10;;;8.40;77.30;;;;;;5082677;28;20221;-63
2023/04/07 05:40:47;;;;;;;23.30;15.07;;;8.50;77.30;;;;;;5066994;28;20226;-62
2023/04/07 05:43:31;;;;;;;24.53;15.50;;;8.50;77.20;;;;;;5063769;28;20463;-62
2023/04/07 05:46:09;;;;;;;27.17;15.10;;;8.60;77.30;;;;;;5064479;28;20562;-63
2023/04/07 05:48:54;;;;;;;23.07;15.17;;;8.60;77.20;;;;;;5083306;28;20468;-63
2023/04/07 05:51:36;;;;;;;26.65;17.20;;;8.60;77.30;;;;;;5085030;28;20547;-62
2023/04/07 05:54:13;;;;;;;34.28;18.50;;;8.60;77.20;;;;;;5083001;28;20195;-62
2023/04/07 05:56:53;;;;;;;27.90;17.97;;;8.60;77.10;;;;;;5082443;28;20332;-63
2023/04/07 05:59:35;;;;;;;25.73;16.83;;;8.70;77.10;;;;;;5079832;28;20813;-63
2023/04/07 06:02:14;;;;;;;37.43;19.50;;;8.60;77.20;;;;;;5076771;28;20219;-62
2023/04/07 06:04:51;;;;;;;35.13;23.83;;;8.60;77.20;;;;;;5082510;28;20564;-63
2023/04/07 06:07:32;;;;;;;45.10;28.33;;;8.60;77.20;;;;;;5083036;28;20994;-63
2023/04/07 06:10:09;;;;;;;30.67;22.53;;;8.50;77.20;;;;;;5063560;28;20468;-63
2023/04/07 06:12:43;;;;;;;31.60;20.60;;;8.60;77.20;;;;;;5075938;28;20467;-63
2023/04/07 06:15:17;;;;;;;105.70;55.13;;;8.50;77.20;;;;;;5080011;28;20199;-63
2023/04/07 06:17:58;;;;;;;70.53;38.83;;;8.50;77.40;;;;;;5080944;28;20508;-63
2023/04/07 06:20:34;;;;;;;93.10;50.30;;;8.40;77.70;;;;;;5082762;28;20448;-63
2023/04/07 06:23:10;;;;;;;55.03;30.97;;;8.40;77.80;;;;;;5082636;28;20452;-63
2023/04/07 06:25:50;;;;;;;96.30;54.53;;;8.40;77.80;;;;;;5060699;28;20860;-63
2023/04/07 06:28:29;;;;;;;104.37;53.23;;;8.40;77.90;;;;;;5079490;28;20927;-63
2023/04/07 06:31:08;;;;;;;89.07;50.00;;;8.50;77.90;;;;;;5074391;28;20540;-63
2023/04/07 06:33:49;;;;;;;65.43;38.07;;;8.50;77.90;;;;;;5078238;28;20457;-63
2023/04/07 06:36:35;;;;;;;38.87;25.50;;;8.50;78.00;;;;;;5080699;28;20468;-63
2023/04/07 06:39:10;;;;;;;30.70;19.90;;;8.50;78.00;;;;;;5080060;28;20796;-63
2023/04/07 06:41:45;;;;;;;61.97;36.20;;;8.50;77.90;;;;;;5077628;28;20510;-63
2023/04/07 06:44:24;;;;;;;34.03;18.83;;;8.50;77.90;;;;;;5075590;28;20986;-63
2023/04/07 06:46:57;;;;;;;32.47;19.13;;;8.50;78.10;;;;;;5078308;28;21012;-62
2023/04/07 06:49:34;;;;;;;27.60;19.07;;;8.50;78.10;;;;;;5081513;28;20460;-63
2023/04/07 06:52:13;;;;;;;29.23;18.50;;;8.50;78.20;;;;;;5082567;28;20514;-63
2023/04/07 06:54:47;;;;;;;28.40;17.53;;;8.50;78.30;;;;;;5081341;28;20468;-63
2023/04/07 06:57:20;;;;;;;34.60;20.07;;;8.50;78.30;;;;;;5081238;28;20786;-63
2023/04/07 06:59:52;;;;;;;31.63;21.00;;;8.50;78.40;;;;;;5084161;28;20460;-63
2023/04/07 07:02:23;;;;;;;38.63;25.70;;;8.50;78.50;;;;;;5082927;28;20493;-63
2023/04/07 07:05:03;;;;;;;37.07;23.30;;;8.50;78.70;;;;;;5082921;28;20913;-63
2023/04/07 07:07:50;;;;;;;37.60;23.30;;;8.60;78.60;;;;;;5085505;28;20951;-62
2023/04/07 07:10:22;;;;;;;37.57;25.10;;;8.70;78.70;;;;;;5086901;28;20445;-63
2023/04/07 07:13:08;;;;;;;38.57;22.50;;;8.70;78.60;;;;;;5082115;28;21443;-63
2023/04/07 07:15:37;;;;;;;34.20;22.43;;;8.70;78.60;;;;;;5083467;28;20521;-63
2023/04/07 07:21:01;;;;;;;36.20;22.10;;;8.80;78.60;;;;;;5086490;28;20552;-62
2023/04/07 07:23:39;;;;;;;38.57;23.03;;;8.70;78.60;;;;;;5067865;28;20949;-63
2023/04/07 07:26:25;;;;;;;46.23;24.73;;;8.80;78.60;;;;;;5083969;28;21286;-63
2023/04/07 07:28:55;;;;;;;38.30;21.17;;;8.80;78.70;;;;;;5081266;28;20474;-64
2023/04/07 07:31:28;;;;;;;54.77;31.60;;;8.90;78.70;;;;;;5080166;28;20518;-64
2023/04/07 07:33:58;;;;;;;52.67;30.40;;;8.90;78.70;;;;;;5085255;28;20452;-62
2023/04/07 07:36:36;;;;;;;98.83;50.93;;;8.90;78.70;;;;;;5083927;28;20526;-64
2023/04/07 07:39:13;;;;;;;36.67;22.90;;;8.90;78.60;;;;;;5080680;28;20464;-63
2023/04/07 07:41:43;;;;;;;28.90;19.33;;;8.90;78.70;;;;;;5083449;28;20480;-63
2023/04/07 07:44:14;;;;;;;34.50;21.87;;;8.90;78.80;;;;;;5079127;28;20484;-63
2023/04/07 07:46:48;;;;;;;33.43;22.70;;;8.90;79.00;;;;;;5084223;28;20484;-63
2023/04/07 07:49:21;;;;;;;32.30;20.00;;;8.90;79.00;;;;;;5084655;28;20456;-63
2023/04/07 07:52:02;;;;;;;31.73;21.10;;;9.00;79.00;;;;;;5085124;28;20765;-63
2023/04/07 07:54:53;;;;;;;28.73;18.83;;;9.00;78.90;;;;;;5082927;28;20475;-64
2023/04/07 07:57:31;;;;;;;25.43;17.20;;;9.00;79.10;;;;;;5081209;28;20496;-64
2023/04/07 08:00:05;;;;;;;27.87;16.60;;;9.00;79.00;;;;;;5082843;28;20540;-63
2023/04/07 08:02:44;;;;;;;29.80;18.43;;;9.00;79.00;;;;;;5086073;28;21222;-64
2023/04/07 08:05:19;;;;;;;31.67;19.97;;;9.00;79.10;;;;;;5087478;28;20889;-63
2023/04/07 08:07:54;;;;;;;28.03;19.27;;;9.10;79.10;;;;;;5089202;28;20441;-63
2023/04/07 08:10:30;;;;;;;30.10;19.40;;;9.10;79.10;;;;;;5081936;28;20472;-63
2023/04/07 08:13:05;;;;;;;28.73;19.50;;;9.20;79.00;;;;;;5083594;28;20461;-63
2023/04/07 08:15:38;;;;;;;31.40;19.73;;;9.10;79.00;;;;;;5083840;28;20471;-63
2023/04/07 08:18:11;;;;;;;28.00;18.23;;;9.10;79.10;;;;;;5083306;28;20471;-63
2023/04/07 08:20:41;;;;;;;28.30;17.27;;;9.20;79.00;;;;;;5085260;28;20482;-63
2023/04/07 08:23:19;;;;;;;32.53;20.67;;;9.20;79.10;;;;;;5079599;28;20461;-63
2023/04/07 08:25:51;;;;;;;30.93;18.33;;;9.20;79.10;;;;;;5084380;28;20795;-63
2023/04/07 08:28:24;;;;;;;27.70;16.90;;;9.20;79.20;;;;;;5084242;28;20465;-63
2023/04/07 08:30:57;;;;;;;29.83;18.60;;;9.20;79.10;;;;;;5084307;28;20491;-64
2023/04/07 08:33:28;;;;;;;30.77;22.23;;;9.20;79.20;;;;;;5076062;28;20461;-63
2023/04/07 08:36:11;;;;;;;32.07;19.10;;;9.20;79.20;;;;;;5079277;28;20484;-63
2023/04/07 08:38:41;;;;;;;28.03;17.57;;;9.10;79.30;;;;;;5081789;28;20462;-63
2023/04/07 08:41:13;;;;;;;29.13;19.10;;;9.20;79.40;;;;;;5082814;28;20457;-63
2023/04/07 08:43:49;;;;;;;29.33;18.80;;;9.20;79.50;;;;;;5063880;28;20519;-63
2023/04/07 08:46:27;;;;;;;30.53;18.97;;;9.20;79.50;;;;;;5082842;28;20481;-63
2023/04/07 08:49:08;;;;;;;29.97;18.20;;;9.20;79.40;;;;;;5078885;28;20466;-63
2023/04/07 08:51:43;;;;;;;29.83;17.40;;;9.20;79.50;;;;;;5084857;28;21195;-63
2023/04/07 08:54:15;;;;;;;25.43;17.83;;;9.20;79.60;;;;;;5086332;28;21009;-63
2023/04/07 08:56:52;;;;;;;27.60;17.83;;;9.30;79.60;;;;;;5085819;28;20539;-63
2023/04/07 08:59:28;;;;;;;27.60;18.70;;;9.30;79.60;;;;;;5083631;28;20522;-63
2023/04/07 09:02:09;;;;;;;27.73;16.70;;;9.30;79.60;;;;;;5078737;28;20551;-62
2023/04/07 09:04:43;;;;;;;28.60;18.90;;;9.30;79.60;;;;;;5082134;28;20466;-62
2023/04/07 09:07:24;;;;;;;26.00;17.10;;;9.40;79.90;;;;;;5074720;28;20577;-62
2023/04/07 09:10:00;;;;;;;27.50;16.63;;;9.40;79.80;;;;;;5087668;28;20931;-62
2023/04/07 09:12:38;;;;;;;25.53;17.10;;;9.50;79.80;;;;;;5078408;28;20472;-63
2023/04/07 09:15:12;;;;;;;28.00;19.40;;;9.60;79.90;;;;;;5080022;28;20481;-62
2023/04/07 09:17:43;;;;;;;26.00;17.47;;;9.60;79.80;;;;;;5079465;28;20496;-62
2023/04/07 09:20:14;;;;;;;26.17;15.83;;;9.70;79.90;;;;;;5083125;28;20462;-62
2023/04/07 09:22:49;;;;;;;26.37;17.20;;;9.70;80.00;;;;;;5083617;28;20449;-62
2023/04/07 09:25:23;;;;;;;30.50;18.03;;;9.80;79.80;;;;;;5083542;28;20537;-62
2023/04/07 09:28:09;;;;;;;28.27;17.63;;;9.80;79.80;;;;;;5083395;28;20478;-62
2023/04/07 09:30:55;;;;;;;29.30;18.00;;;9.80;79.80;;;;;;5076456;28;20473;-62
2023/04/07 09:33:32;;;;;;;27.10;17.73;;;9.90;79.90;;;;;;5075735;28;20480;-62
2023/04/07 09:36:09;;;;;;;29.10;21.47;;;9.90;79.70;;;;;;5082215;28;20999;-62
2023/04/07 09:38:47;;;;;;;32.37;21.70;;;9.90;79.80;;;;;;5078288;28;20472;-62
2023/04/07 09:41:16;;;;;;;25.77;18.40;;;9.90;79.80;;;;;;5082399;28;20468;-62
2023/04/07 09:44:03;;;;;;;26.00;17.03;;;9.90;79.80;;;;;;5080396;28;20887;-62
2023/04/07 09:46:52;;;;;;;30.43;18.77;;;10.00;79.80;;;;;;5077402;28;20480;-62
2023/04/07 09:49:26;;;;;;;27.17;17.93;;;10.00;80.00;;;;;;5079193;28;20468;-62
2023/04/07 09:51:57;;;;;;;28.30;18.70;;;10.00;79.90;;;;;;5080772;28;20521;-62
2023/04/07 09:54:40;;;;;;;34.93;20.70;;;10.10;79.90;;;;;;5080714;28;20475;-63
2023/04/07 09:57:12;;;;;;;25.80;17.50;;;10.20;79.80;;;;;;5079699;28;20854;-62
2023/04/07 09:59:50;;;;;;;26.23;17.00;;;10.20;79.80;;;;;;5083427;28;20464;-62
2023/04/07 10:02:22;;;;;;;24.67;15.77;;;10.30;79.90;;;;;;5077758;28;21037;-62
2023/04/07 10:04:56;;;;;;;23.43;16.60;;;10.40;79.90;;;;;;5076463;28;20640;-62
2023/04/07 10:07:27;;;;;;;25.77;16.10;;;10.40;79.90;;;;;;5082888;28;20472;-62
2023/04/07 10:10:00;;;;;;;27.10;16.07;;;10.50;79.90;;;;;;5080046;28;20545;-62
2023/04/07 10:12:36;;;;;;;25.37;16.00;;;10.50;79.90;;;;;;5082691;28;20470;-63
2023/04/07 10:15:14;;;;;;;23.30;14.87;;;10.60;79.80;;;;;;5078672;28;20525;-62
2023/04/07 10:17:52;;;;;;;22.30;14.87;;;10.60;79.60;;;;;;5080489;28;20480;-63
2023/04/07 10:20:26;;;;;;;22.80;14.30;;;10.70;79.50;;;;;;5078955;28;20473;-63
2023/04/07 10:23:02;;;;;;;23.50;14.47;;;10.70;79.40;;;;;;5079451;28;20668;-62
2023/04/07 10:25:35;;;;;;;24.67;15.30;;;10.70;79.50;;;;;;5082370;28;21002;-62
2023/04/07 10:28:12;;;;;;;20.93;15.43;;;10.70;79.40;;;;;;5082079;28;20482;-62
2023/04/07 10:30:52;;;;;;;21.30;14.10;;;10.70;79.50;;;;;;5085817;28;20490;-63
2023/04/07 10:33:51;;;;;;;19.80;13.67;;;10.70;79.50;;;;;;5066621;28;20493;-62
2023/04/07 10:36:23;;;;;;;24.20;14.80;;;10.80;79.40;;;;;;5089626;28;20505;-62
2023/04/07 10:39:22;;;;;;;21.20;13.97;;;10.90;79.40;;;;;;5083752;28;20473;-63
2023/04/07 10:41:54;;;;;;;19.20;12.37;;;10.90;79.20;;;;;;5083220;28;20929;-63
2023/04/07 10:44:50;;;;;;;18.83;13.37;;;10.90;79.20;;;;;;5085881;28;20563;-63
2023/04/07 10:47:25;;;;;;;19.70;11.90;;;10.80;79.20;;;;;;5088268;28;20489;-62
2023/04/07 10:50:21;;;;;;;18.73;11.43;;;10.90;79.10;;;;;;5085490;28;20470;-63
2023/04/07 10:53:08;;;;;;;20.40;14.20;;;10.90;79.10;;;;;;5085966;28;20445;-62
2023/04/07 10:55:45;;;;;;;18.80;12.67;;;10.90;79.00;;;;;;5083236;28;20570;-62
2023/04/07 10:58:40;;;;;;;17.33;12.60;;;10.90;78.90;;;;;;5082465;28;20505;-62
2023/04/07 11:01:25;;;;;;;20.97;14.60;;;10.90;78.70;;;;;;5084431;28;20520;-62
2023/04/07 11:03:58;;;;;;;20.23;13.00;;;10.90;78.80;;;;;;5083505;28;20472;-62
2023/04/07 11:06:31;;;;;;;19.33;12.70;;;11.00;78.80;;;;;;5085599;28;20548;-62
2023/04/07 11:09:07;;;;;;;23.63;13.07;;;11.00;78.70;;;;;;5083656;28;20488;-62
2023/04/07 11:11:47;;;;;;;21.20;13.83;;;11.00;78.70;;;;;;5082652;28;20539;-63
2023/04/07 11:14:26;;;;;;;20.50;13.63;;;11.00;78.50;;;;;;5082649;28;20865;-63
2023/04/07 11:17:08;;;;;;;18.77;12.97;;;11.10;78.50;;;;;;5080565;28;20863;-63
2023/04/07 11:19:57;;;;;;;17.40;11.93;;;11.10;78.70;;;;;;5079004;28;20515;-62
2023/04/07 11:22:33;;;;;;;17.97;11.80;;;11.20;78.70;;;;;;5081020;28;20471;-62
2023/04/07 11:25:22;;;;;;;19.10;11.83;;;11.20;78.70;;;;;;5077624;28;20541;-62
2023/04/07 11:27:56;;;;;;;19.13;13.23;;;11.30;78.70;;;;;;5083604;28;20478;-62
2023/04/07 11:30:37;;;;;;;16.43;12.37;;;11.30;78.50;;;;;;5071489;28;21083;-62
2023/04/07 11:33:16;;;;;;;15.60;11.33;;;11.40;78.50;;;;;;5064158;28;21254;-62
2023/04/07 11:36:00;;;;;;;16.83;11.20;;;11.40;78.50;;;;;;5084746;28;20471;-62
2023/04/07 11:38:57;;;;;;;15.40;10.67;;;11.50;78.50;;;;;;5082403;28;20460;-62
2023/04/07 11:41:47;;;;;;;18.43;12.23;;;11.60;78.50;;;;;;5081866;28;20554;-63
2023/04/07 11:44:21;;;;;;;15.47;11.17;;;11.60;78.30;;;;;;5081760;28;20915;-63
2023/04/07 11:46:58;;;;;;;17.33;10.30;;;11.60;78.10;;;;;;5080335;28;20520;-63
2023/04/07 11:49:31;;;;;;;16.80;11.67;;;11.60;78.10;;;;;;5077834;28;20490;-63
2023/04/07 11:52:09;;;;;;;17.23;11.33;;;11.60;78.00;;;;;;5079331;28;20465;-63
2023/04/07 11:54:43;;;;;;;17.27;12.10;;;11.60;77.90;;;;;;5082027;28;20463;-65
2023/04/07 11:57:14;;;;;;;18.27;12.37;;;11.60;77.90;;;;;;5065368;28;20792;-63
2023/04/07 12:00:05;;;;;;;19.00;10.90;;;11.60;77.70;;;;;;5080186;28;20478;-63
2023/04/07 12:02:59;;;;;;;16.33;10.17;;;11.60;77.60;;;;;;5078546;28;20480;-66
2023/04/07 12:05:43;;;;;;;23.80;11.47;;;11.60;77.60;;;;;;5083710;28;20532;-63
2023/04/07 12:08:17;;;;;;;18.80;11.90;;;11.70;77.50;;;;;;5080704;28;20991;-63
2023/04/07 12:10:51;;;;;;;19.47;10.50;;;11.70;77.30;;;;;;5067757;28;21070;-63
2023/04/07 12:13:30;;;;;;;22.33;12.60;;;11.80;77.20;;;;;;5081187;28;20503;-65
2023/04/07 12:16:12;;;;;;;13.43;9.57;;;11.80;77.20;;;;;;5079987;28;20452;-64
2023/04/07 12:18:47;;;;;;;15.07;9.37;;;11.80;77.10;;;;;;5077269;28;20490;-64
2023/04/07 12:21:24;;;;;;;17.23;9.67;;;11.90;77.10;;;;;;5081280;28;20524;-63
2023/04/07 12:24:04;;;;;;;15.40;9.87;;;12.00;76.90;;;;;;5083997;28;20950;-63
2023/04/07 12:26:52;;;;;;;13.50;9.37;;;12.00;76.90;;;;;;5085168;28;20946;-63
2023/04/07 12:29:26;;;;;;;14.30;8.90;;;12.00;76.80;;;;;;5081768;28;20479;-63
2023/04/07 12:32:00;;;;;;;13.37;8.50;;;12.00;76.70;;;;;;5072663;28;20560;-63
2023/04/07 12:34:47;;;;;;;14.40;9.33;;;12.10;76.70;;;;;;5080184;28;20479;-63
2023/04/07 12:37:39;;;;;;;12.77;8.33;;;12.10;76.40;;;;;;5087896;28;20562;-63
2023/04/07 12:40:18;;;;;;;15.80;8.97;;;12.10;76.30;;;;;;5071457;28;20990;-63
2023/04/07 12:42:57;;;;;;;14.23;9.37;;;12.20;76.20;;;;;;5064203;28;20528;-64
2023/04/07 12:45:34;;;;;;;11.93;7.83;;;12.20;76.10;;;;;;5080883;28;20486;-63
2023/04/07 12:48:05;;;;;;;16.20;8.47;;;12.30;75.80;;;;;;5075480;28;20561;-63
2023/04/07 12:50:38;;;;;;;11.37;7.60;;;12.30;75.70;;;;;;5080380;28;20506;-63
2023/04/07 12:53:16;;;;;;;15.37;8.10;;;12.30;75.60;;;;;;5082746;28;20898;-64
2023/04/07 12:55:53;;;;;;;13.50;7.27;;;12.30;75.50;;;;;;5086143;28;20449;-63
2023/04/07 12:58:26;;;;;;;10.80;7.20;;;12.30;75.40;;;;;;5065613;28;20790;-63
2023/04/07 13:01:13;;;;;;;13.40;7.70;;;12.40;75.40;;;;;;5076706;28;20541;-63
2023/04/07 13:03:46;;;;;;;12.43;7.93;;;12.50;75.20;;;;;;5079088;28;20470;-64
2023/04/07 13:06:24;;;;;;;15.17;7.87;;;12.50;75.10;;;;;;5084787;28;20457;-63
2023/04/07 13:08:58;;;;;;;11.50;7.43;;;12.60;74.90;;;;;;5078814;28;20778;-63
2023/04/07 13:11:30;;;;;;;10.97;7.10;;;12.70;74.60;;;;;;5083245;28;20548;-63
2023/04/07 13:14:03;;;;;;;10.73;7.23;;;12.70;74.60;;;;;;5073500;28;20472;-63
2023/04/07 13:16:34;;;;;;;15.30;7.70;;;12.70;74.50;;;;;;5080141;28;20467;-64
2023/04/07 13:19:08;;;;;;;12.10;7.63;;;12.80;74.50;;;;;;5076230;28;20495;-62
2023/04/07 13:21:44;;;;;;;11.50;7.33;;;12.80;74.50;;;;;;5081138;28;20448;-63
2023/04/07 13:24:28;;;;;;;13.77;8.23;;;12.80;74.50;;;;;;5084785;28;20454;-62
2023/04/07 13:27:15;;;;;;;11.33;7.20;;;12.90;74.30;;;;;;5079755;28;20453;-62
2023/04/07 13:29:46;;;;;;;14.83;10.00;;;12.90;74.00;;;;;;5081748;28;20475;-62
2023/04/07 13:32:28;;;;;;;14.50;8.23;;;12.80;73.80;;;;;;5059834;28;20484;-62
2023/04/07 13:35:03;;;;;;;14.33;8.40;;;12.80;73.60;;;;;;5078114;28;20843;-63
2023/04/07 13:37:43;;;;;;;11.27;7.40;;;12.90;73.70;;;;;;5075703;28;20562;-62
2023/04/07 13:40:19;;;;;;;12.60;8.50;;;12.80;73.40;;;;;;5087386;28;20455;-62
2023/04/07 13:42:52;;;;;;;15.10;7.73;;;12.80;73.60;;;;;;5080876;28;20547;-63
2023/04/07 13:45:34;;;;;;;12.43;7.33;;;12.90;73.60;;;;;;5078364;28;20475;-63
2023/04/07 13:48:14;;;;;;;11.63;7.00;;;12.90;73.40;;;;;;5078028;28;20469;-63